sensor_id;sensor_type;location;lat;lon;timestamp;P1;durP1;ratioP1;P2;durP2;ratioP2
9563;SDS011;4820;50.870;4.702;2023-04-03T00:00:22;6.07;;;4.30;;
9563;SDS011;4820;50.870;4.702;2023-04-03T00:02:48;6.65;;;4.25;;
9563;SDS011;4820;50.870;4.702;2023-04-03T00:05:15;6.15;;;4.07;;
9563;SDS011;4820;50.870;4.702;2023-04-03T00:07:41;4.85;;;4.00;;
9563;SDS011;4820;50.870;4.702;2023-04-03T00:10:08;6.10;;;4.32;;
9563;SDS011;4820;50.870;4.702;2023-04-03T00:12:34;5.10;;;4.13;;
9563;SDS011;4820;50.870;4.702;2023-04-03T00:15:00;6.05;;;4.30;;
9563;SDS011;4820;50.870;4.702;2023-04-03T00:17:25;8.27;;;4.25;;
9563;SDS011;4820;50.870;4.702;2023-04-03T00:19:51;5.57;;;4.80;;
9563;SDS011;4820;50.870;4.702;2023-04-03T00:22:17;8.25;;;4.03;;
9563;SDS011;4820;50.870;4.702;2023-04-03T00:24:42;4.72;;;3.75;;
9563;SDS011;4820;50.870;4.702;2023-04-03T00:27:08;5.70;;;4.13;;
9563;SDS011;4820;50.870;4.702;2023-04-03T00:29:34;6.13;;;4.00;;
9563;SDS011;4820;50.870;4.702;2023-04-03T00:32:00;5.40;;;3.80;;
9563;SDS011;4820;50.870;4.702;2023-04-03T00:34:26;5.00;;;3.88;;
9563;SDS011;4820;50.870;4.702;2023-04-03T00:36:52;5.50;;;3.90;;
9563;SDS011;4820;50.870;4.702;2023-04-03T00:39:18;5.72;;;4.18;;
9563;SDS011;4820;50.870;4.702;2023-04-03T00:41:45;6.97;;;4.00;;
9563;SDS011;4820;50.870;4.702;2023-04-03T00:47:03;5.28;;;3.80;;
9563;SDS011;4820;50.870;4.702;2023-04-03T00:49:32;5.30;;;3.88;;
9563;SDS011;4820;50.870;4.702;2023-04-03T00:51:58;3.90;;;3.60;;
9563;SDS011;4820;50.870;4.702;2023-04-03T00:54:25;5.68;;;3.53;;
9563;SDS011;4820;50.870;4.702;2023-04-03T00:56:52;4.82;;;3.88;;
9563;SDS011;4820;50.870;4.702;2023-04-03T00:59:21;5.35;;;3.70;;
9563;SDS011;4820;50.870;4.702;2023-04-03T01:01:51;5.22;;;4.40;;
9563;SDS011;4820;50.870;4.702;2023-04-03T01:04:30;4.38;;;3.63;;
9563;SDS011;4820;50.870;4.702;2023-04-03T01:07:02;5.53;;;4.07;;
9563;SDS011;4820;50.870;4.702;2023-04-03T01:09:31;5.38;;;3.70;;
9563;SDS011;4820;50.870;4.702;2023-04-03T01:14:51;4.00;;;3.60;;
9563;SDS011;4820;50.870;4.702;2023-04-03T01:25:44;5.65;;;3.88;;
9563;SDS011;4820;50.870;4.702;2023-04-03T01:28:17;5.75;;;3.85;;
9563;SDS011;4820;50.870;4.702;2023-04-03T01:34:02;5.88;;;4.03;;
9563;SDS011;4820;50.870;4.702;2023-04-03T01:36:29;7.95;;;4.30;;
9563;SDS011;4820;50.870;4.702;2023-04-03T01:38:57;4.93;;;3.70;;
9563;SDS011;4820;50.870;4.702;2023-04-03T01:41:26;5.35;;;3.60;;
9563;SDS011;4820;50.870;4.702;2023-04-03T01:43:53;6.03;;;3.90;;
9563;SDS011;4820;50.870;4.702;2023-04-03T01:46:19;4.05;;;3.65;;
9563;SDS011;4820;50.870;4.702;2023-04-03T01:48:47;4.30;;;3.90;;
9563;SDS011;4820;50.870;4.702;2023-04-03T01:51:13;4.38;;;3.55;;
9563;SDS011;4820;50.870;4.702;2023-04-03T01:53:39;4.63;;;4.00;;
9563;SDS011;4820;50.870;4.702;2023-04-03T01:56:05;5.07;;;3.70;;
9563;SDS011;4820;50.870;4.702;2023-04-03T01:58:32;5.43;;;4.03;;
9563;SDS011;4820;50.870;4.702;2023-04-03T02:00:57;4.57;;;3.60;;
9563;SDS011;4820;50.870;4.702;2023-04-03T02:03:23;4.50;;;3.47;;
9563;SDS011;4820;50.870;4.702;2023-04-03T02:05:49;5.28;;;3.95;;
9563;SDS011;4820;50.870;4.702;2023-04-03T02:08:15;4.82;;;3.95;;
9563;SDS011;4820;50.870;4.702;2023-04-03T02:10:48;5.95;;;3.90;;
9563;SDS011;4820;50.870;4.702;2023-04-03T02:13:14;4.53;;;4.05;;
9563;SDS011;4820;50.870;4.702;2023-04-03T02:15:40;5.35;;;3.83;;
9563;SDS011;4820;50.870;4.702;2023-04-03T02:18:07;4.97;;;4.03;;
9563;SDS011;4820;50.870;4.702;2023-04-03T02:20:33;6.57;;;4.10;;
9563;SDS011;4820;50.870;4.702;2023-04-03T02:22:59;5.05;;;4.20;;
9563;SDS011;4820;50.870;4.702;2023-04-03T02:25:25;4.57;;;3.70;;
9563;SDS011;4820;50.870;4.702;2023-04-03T02:27:52;8.77;;;4.53;;
9563;SDS011;4820;50.870;4.702;2023-04-03T02:30:18;6.22;;;4.13;;
9563;SDS011;4820;50.870;4.702;2023-04-03T02:32:44;5.20;;;4.07;;
9563;SDS011;4820;50.870;4.702;2023-04-03T02:35:10;5.55;;;4.35;;
9563;SDS011;4820;50.870;4.702;2023-04-03T02:37:37;5.50;;;3.90;;
9563;SDS011;4820;50.870;4.702;2023-04-03T02:40:03;6.20;;;4.10;;
9563;SDS011;4820;50.870;4.702;2023-04-03T02:42:29;5.18;;;4.18;;
9563;SDS011;4820;50.870;4.702;2023-04-03T02:44:55;5.97;;;4.15;;
9563;SDS011;4820;50.870;4.702;2023-04-03T02:47:21;5.50;;;3.88;;
9563;SDS011;4820;50.870;4.702;2023-04-03T02:49:47;4.85;;;4.28;;
9563;SDS011;4820;50.870;4.702;2023-04-03T02:52:13;4.38;;;3.90;;
9563;SDS011;4820;50.870;4.702;2023-04-03T02:54:39;6.15;;;4.13;;
9563;SDS011;4820;50.870;4.702;2023-04-03T02:57:06;5.47;;;4.40;;
9563;SDS011;4820;50.870;4.702;2023-04-03T02:59:34;6.60;;;4.07;;
9563;SDS011;4820;50.870;4.702;2023-04-03T03:02:06;5.38;;;4.18;;
9563;SDS011;4820;50.870;4.702;2023-04-03T03:04:33;6.18;;;4.75;;
9563;SDS011;4820;50.870;4.702;2023-04-03T03:06:59;4.85;;;4.35;;
9563;SDS011;4820;50.870;4.702;2023-04-03T03:09:25;5.57;;;4.13;;
9563;SDS011;4820;50.870;4.702;2023-04-03T03:11:51;5.10;;;4.30;;
9563;SDS011;4820;50.870;4.702;2023-04-03T03:14:17;7.75;;;4.47;;
9563;SDS011;4820;50.870;4.702;2023-04-03T03:16:43;5.15;;;4.18;;
9563;SDS011;4820;50.870;4.702;2023-04-03T03:19:09;5.07;;;4.10;;
9563;SDS011;4820;50.870;4.702;2023-04-03T03:21:35;4.93;;;4.23;;
9563;SDS011;4820;50.870;4.702;2023-04-03T03:24:01;5.28;;;4.32;;
9563;SDS011;4820;50.870;4.702;2023-04-03T03:26:27;5.78;;;4.68;;
9563;SDS011;4820;50.870;4.702;2023-04-03T03:28:53;7.90;;;4.80;;
9563;SDS011;4820;50.870;4.702;2023-04-03T03:31:19;5.13;;;4.32;;
9563;SDS011;4820;50.870;4.702;2023-04-03T03:33:44;4.88;;;4.22;;
9563;SDS011;4820;50.870;4.702;2023-04-03T03:36:10;5.63;;;4.30;;
9563;SDS011;4820;50.870;4.702;2023-04-03T03:38:36;6.32;;;4.57;;
9563;SDS011;4820;50.870;4.702;2023-04-03T03:41:02;7.55;;;4.60;;
9563;SDS011;4820;50.870;4.702;2023-04-03T03:43:27;4.97;;;4.43;;
9563;SDS011;4820;50.870;4.702;2023-04-03T03:45:53;5.53;;;4.45;;
9563;SDS011;4820;50.870;4.702;2023-04-03T03:48:20;6.28;;;4.72;;
9563;SDS011;4820;50.870;4.702;2023-04-03T03:50:46;5.97;;;4.43;;
9563;SDS011;4820;50.870;4.702;2023-04-03T03:53:12;6.05;;;4.30;;
9563;SDS011;4820;50.870;4.702;2023-04-03T03:55:38;5.28;;;4.30;;
9563;SDS011;4820;50.870;4.702;2023-04-03T03:58:03;6.57;;;4.28;;
9563;SDS011;4820;50.870;4.702;2023-04-03T04:00:29;4.75;;;3.90;;
9563;SDS011;4820;50.870;4.702;2023-04-03T04:02:55;5.80;;;4.53;;
9563;SDS011;4820;50.870;4.702;2023-04-03T04:05:22;5.60;;;4.30;;
9563;SDS011;4820;50.870;4.702;2023-04-03T04:07:48;4.78;;;4.38;;
9563;SDS011;4820;50.870;4.702;2023-04-03T04:10:14;4.95;;;4.40;;
9563;SDS011;4820;50.870;4.702;2023-04-03T04:12:40;4.95;;;4.43;;
9563;SDS011;4820;50.870;4.702;2023-04-03T04:15:05;7.38;;;4.47;;
9563;SDS011;4820;50.870;4.702;2023-04-03T04:17:32;4.78;;;4.15;;
9563;SDS011;4820;50.870;4.702;2023-04-03T04:19:57;5.25;;;4.60;;
9563;SDS011;4820;50.870;4.702;2023-04-03T04:22:23;5.90;;;4.57;;
9563;SDS011;4820;50.870;4.702;2023-04-03T04:24:49;7.57;;;4.80;;
9563;SDS011;4820;50.870;4.702;2023-04-03T04:27:14;6.60;;;5.20;;
9563;SDS011;4820;50.870;4.702;2023-04-03T04:29:41;6.72;;;4.82;;
9563;SDS011;4820;50.870;4.702;2023-04-03T04:32:06;6.43;;;4.78;;
9563;SDS011;4820;50.870;4.702;2023-04-03T04:34:33;7.35;;;5.07;;
9563;SDS011;4820;50.870;4.702;2023-04-03T04:37:00;6.53;;;5.22;;
9563;SDS011;4820;50.870;4.702;2023-04-03T04:39:25;6.45;;;4.85;;
9563;SDS011;4820;50.870;4.702;2023-04-03T04:41:51;5.07;;;4.57;;
9563;SDS011;4820;50.870;4.702;2023-04-03T04:44:17;5.10;;;4.20;;
9563;SDS011;4820;50.870;4.702;2023-04-03T04:46:43;5.63;;;5.10;;
9563;SDS011;4820;50.870;4.702;2023-04-03T04:49:08;5.82;;;5.15;;
9563;SDS011;4820;50.870;4.702;2023-04-03T04:51:34;12.05;;;6.07;;
9563;SDS011;4820;50.870;4.702;2023-04-03T04:54:00;6.70;;;5.30;;
9563;SDS011;4820;50.870;4.702;2023-04-03T04:56:26;6.60;;;5.40;;
9563;SDS011;4820;50.870;4.702;2023-04-03T04:58:51;6.15;;;5.03;;
9563;SDS011;4820;50.870;4.702;2023-04-03T05:01:17;6.38;;;4.90;;
9563;SDS011;4820;50.870;4.702;2023-04-03T05:03:43;6.13;;;5.53;;
9563;SDS011;4820;50.870;4.702;2023-04-03T05:06:09;5.75;;;5.15;;
9563;SDS011;4820;50.870;4.702;2023-04-03T05:08:35;7.82;;;5.43;;
9563;SDS011;4820;50.870;4.702;2023-04-03T05:11:01;6.47;;;5.32;;
9563;SDS011;4820;50.870;4.702;2023-04-03T05:13:26;7.47;;;5.50;;
9563;SDS011;4820;50.870;4.702;2023-04-03T05:15:52;7.55;;;5.57;;
9563;SDS011;4820;50.870;4.702;2023-04-03T05:18:18;7.25;;;5.75;;
9563;SDS011;4820;50.870;4.702;2023-04-03T05:20:43;8.80;;;6.10;;
9563;SDS011;4820;50.870;4.702;2023-04-03T05:23:10;7.18;;;5.40;;
9563;SDS011;4820;50.870;4.702;2023-04-03T05:25:39;7.72;;;5.88;;
9563;SDS011;4820;50.870;4.702;2023-04-03T05:28:05;7.10;;;5.93;;
9563;SDS011;4820;50.870;4.702;2023-04-03T05:30:31;7.63;;;6.10;;
9563;SDS011;4820;50.870;4.702;2023-04-03T05:32:58;7.82;;;6.18;;
9563;SDS011;4820;50.870;4.702;2023-04-03T05:35:24;7.47;;;6.03;;
9563;SDS011;4820;50.870;4.702;2023-04-03T05:37:51;6.68;;;5.95;;
9563;SDS011;4820;50.870;4.702;2023-04-03T05:40:16;9.18;;;6.57;;
9563;SDS011;4820;50.870;4.702;2023-04-03T05:42:43;6.63;;;5.90;;
9563;SDS011;4820;50.870;4.702;2023-04-03T05:45:09;6.83;;;6.13;;
9563;SDS011;4820;50.870;4.702;2023-04-03T05:47:35;6.55;;;5.63;;
9563;SDS011;4820;50.870;4.702;2023-04-03T05:50:01;7.40;;;6.55;;
9563;SDS011;4820;50.870;4.702;2023-04-03T05:52:29;8.30;;;6.33;;
9563;SDS011;4820;50.870;4.702;2023-04-03T05:54:58;7.57;;;6.30;;
9563;SDS011;4820;50.870;4.702;2023-04-03T05:57:25;8.53;;;6.60;;
9563;SDS011;4820;50.870;4.702;2023-04-03T05:59:53;7.47;;;6.70;;
9563;SDS011;4820;50.870;4.702;2023-04-03T06:02:20;7.10;;;6.40;;
9563;SDS011;4820;50.870;4.702;2023-04-03T06:04:47;9.10;;;6.95;;
9563;SDS011;4820;50.870;4.702;2023-04-03T06:07:17;9.50;;;7.37;;
9563;SDS011;4820;50.870;4.702;2023-04-03T06:09:49;7.07;;;6.23;;
9563;SDS011;4820;50.870;4.702;2023-04-03T06:12:16;8.07;;;7.27;;
9563;SDS011;4820;50.870;4.702;2023-04-03T06:14:42;7.80;;;7.00;;
9563;SDS011;4820;50.870;4.702;2023-04-03T06:17:08;7.40;;;6.70;;
9563;SDS011;4820;50.870;4.702;2023-04-03T06:19:35;7.83;;;6.90;;
9563;SDS011;4820;50.870;4.702;2023-04-03T06:22:02;8.10;;;7.30;;
9563;SDS011;4820;50.870;4.702;2023-04-03T06:24:28;7.50;;;6.43;;
9563;SDS011;4820;50.870;4.702;2023-04-03T06:26:55;10.48;;;7.07;;
9563;SDS011;4820;50.870;4.702;2023-04-03T06:29:21;8.75;;;7.20;;
9563;SDS011;4820;50.870;4.702;2023-04-03T06:31:47;7.90;;;7.10;;
9563;SDS011;4820;50.870;4.702;2023-04-03T06:34:13;7.80;;;7.10;;
9563;SDS011;4820;50.870;4.702;2023-04-03T06:36:39;8.65;;;7.75;;
9563;SDS011;4820;50.870;4.702;2023-04-03T06:39:05;12.25;;;7.68;;
9563;SDS011;4820;50.870;4.702;2023-04-03T06:41:31;12.82;;;8.30;;
9563;SDS011;4820;50.870;4.702;2023-04-03T06:43:58;11.65;;;7.25;;
9563;SDS011;4820;50.870;4.702;2023-04-03T06:46:25;7.75;;;6.95;;
9563;SDS011;4820;50.870;4.702;2023-04-03T06:48:52;8.32;;;6.93;;
9563;SDS011;4820;50.870;4.702;2023-04-03T06:53:52;9.80;;;6.75;;
9563;SDS011;4820;50.870;4.702;2023-04-03T06:56:20;8.35;;;6.97;;
9563;SDS011;4820;50.870;4.702;2023-04-03T06:58:47;7.68;;;6.72;;
9563;SDS011;4820;50.870;4.702;2023-04-03T07:01:14;9.43;;;6.80;;
9563;SDS011;4820;50.870;4.702;2023-04-03T07:03:43;16.25;;;7.85;;
9563;SDS011;4820;50.870;4.702;2023-04-03T07:06:10;8.88;;;6.93;;
9563;SDS011;4820;50.870;4.702;2023-04-03T07:08:37;8.82;;;6.28;;
9563;SDS011;4820;50.870;4.702;2023-04-03T07:11:03;11.07;;;7.07;;
9563;SDS011;4820;50.870;4.702;2023-04-03T07:13:30;10.88;;;7.28;;
9563;SDS011;4820;50.870;4.702;2023-04-03T07:15:57;10.85;;;6.38;;
9563;SDS011;4820;50.870;4.702;2023-04-03T07:18:23;7.20;;;6.20;;
9563;SDS011;4820;50.870;4.702;2023-04-03T07:20:50;7.72;;;6.40;;
9563;SDS011;4820;50.870;4.702;2023-04-03T07:23:16;9.02;;;6.60;;
9563;SDS011;4820;50.870;4.702;2023-04-03T07:25:46;10.82;;;6.85;;
9563;SDS011;4820;50.870;4.702;2023-04-03T07:28:13;9.65;;;6.43;;
9563;SDS011;4820;50.870;4.702;2023-04-03T07:30:43;8.38;;;6.05;;
9563;SDS011;4820;50.870;4.702;2023-04-03T07:33:09;8.77;;;6.20;;
9563;SDS011;4820;50.870;4.702;2023-04-03T07:35:34;6.20;;;5.57;;
9563;SDS011;4820;50.870;4.702;2023-04-03T07:38:00;8.93;;;5.63;;
9563;SDS011;4820;50.870;4.702;2023-04-03T07:40:26;6.47;;;5.00;;
9563;SDS011;4820;50.870;4.702;2023-04-03T07:42:52;7.30;;;5.57;;
9563;SDS011;4820;50.870;4.702;2023-04-03T07:45:17;7.90;;;4.75;;
9563;SDS011;4820;50.870;4.702;2023-04-03T07:47:44;8.68;;;4.88;;
9563;SDS011;4820;50.870;4.702;2023-04-03T07:50:09;5.72;;;4.88;;
9563;SDS011;4820;50.870;4.702;2023-04-03T07:52:35;6.72;;;4.78;;
9563;SDS011;4820;50.870;4.702;2023-04-03T07:55:01;6.68;;;5.18;;
9563;SDS011;4820;50.870;4.702;2023-04-03T07:57:27;5.30;;;4.63;;
9563;SDS011;4820;50.870;4.702;2023-04-03T07:59:54;7.85;;;4.70;;
9563;SDS011;4820;50.870;4.702;2023-04-03T08:02:21;5.65;;;4.50;;
9563;SDS011;4820;50.870;4.702;2023-04-03T08:04:46;8.05;;;5.78;;
9563;SDS011;4820;50.870;4.702;2023-04-03T08:07:12;7.32;;;4.57;;
9563;SDS011;4820;50.870;4.702;2023-04-03T08:09:39;7.15;;;4.63;;
9563;SDS011;4820;50.870;4.702;2023-04-03T08:12:05;5.32;;;4.35;;
9563;SDS011;4820;50.870;4.702;2023-04-03T08:14:34;7.13;;;4.43;;
9563;SDS011;4820;50.870;4.702;2023-04-03T08:16:59;8.27;;;4.20;;
9563;SDS011;4820;50.870;4.702;2023-04-03T08:19:27;5.80;;;4.53;;
9563;SDS011;4820;50.870;4.702;2023-04-03T08:21:53;6.30;;;3.97;;
9563;SDS011;4820;50.870;4.702;2023-04-03T08:24:20;5.80;;;4.68;;
9563;SDS011;4820;50.870;4.702;2023-04-03T08:26:45;6.45;;;4.25;;
9563;SDS011;4820;50.870;4.702;2023-04-03T08:29:11;9.25;;;4.70;;
9563;SDS011;4820;50.870;4.702;2023-04-03T08:31:37;6.95;;;3.95;;
9563;SDS011;4820;50.870;4.702;2023-04-03T08:34:02;9.98;;;4.43;;
9563;SDS011;4820;50.870;4.702;2023-04-03T08:36:28;7.00;;;4.32;;
9563;SDS011;4820;50.870;4.702;2023-04-03T08:38:55;5.18;;;3.72;;
9563;SDS011;4820;50.870;4.702;2023-04-03T08:41:34;5.35;;;3.70;;
9563;SDS011;4820;50.870;4.702;2023-04-03T08:55:25;7.93;;;3.22;;
9563;SDS011;4820;50.870;4.702;2023-04-03T08:57:53;5.05;;;3.45;;
9563;SDS011;4820;50.870;4.702;2023-04-03T09:00:32;5.80;;;3.30;;
9563;SDS011;4820;50.870;4.702;2023-04-03T09:03:16;4.57;;;2.83;;
9563;SDS011;4820;50.870;4.702;2023-04-03T09:08:43;8.32;;;3.20;;
9563;SDS011;4820;50.870;4.702;2023-04-03T09:11:24;4.18;;;2.53;;
9563;SDS011;4820;50.870;4.702;2023-04-03T09:13:57;5.35;;;2.70;;
9563;SDS011;4820;50.870;4.702;2023-04-03T09:21:45;5.95;;;2.80;;
9563;SDS011;4820;50.870;4.702;2023-04-03T09:24:12;4.35;;;2.75;;
9563;SDS011;4820;50.870;4.702;2023-04-03T09:29:25;5.88;;;2.30;;
9563;SDS011;4820;50.870;4.702;2023-04-03T09:32:01;3.58;;;2.40;;
9563;SDS011;4820;50.870;4.702;2023-04-03T09:34:37;5.32;;;2.55;;
9563;SDS011;4820;50.870;4.702;2023-04-03T09:37:06;9.68;;;3.10;;
9563;SDS011;4820;50.870;4.702;2023-04-03T09:39:52;97.15;;;15.07;;
9563;SDS011;4820;50.870;4.702;2023-04-03T09:42:23;5.15;;;2.95;;
9563;SDS011;4820;50.870;4.702;2023-04-03T09:44:57;5.93;;;2.80;;
9563;SDS011;4820;50.870;4.702;2023-04-03T09:47:27;5.32;;;2.53;;
9563;SDS011;4820;50.870;4.702;2023-04-03T09:52:49;5.45;;;2.92;;
9563;SDS011;4820;50.870;4.702;2023-04-03T09:55:23;4.38;;;2.97;;
9563;SDS011;4820;50.870;4.702;2023-04-03T09:58:00;4.13;;;2.67;;
9563;SDS011;4820;50.870;4.702;2023-04-03T10:02:58;9.35;;;6.30;;
9563;SDS011;4820;50.870;4.702;2023-04-03T10:05:31;7.32;;;2.88;;
9563;SDS011;4820;50.870;4.702;2023-04-03T10:10:45;5.18;;;2.70;;
9563;SDS011;4820;50.870;4.702;2023-04-03T10:13:15;4.70;;;2.78;;
9563;SDS011;4820;50.870;4.702;2023-04-03T10:15:48;5.25;;;2.88;;
9563;SDS011;4820;50.870;4.702;2023-04-03T10:18:24;4.80;;;2.60;;
9563;SDS011;4820;50.870;4.702;2023-04-03T10:21:03;4.88;;;2.50;;
9563;SDS011;4820;50.870;4.702;2023-04-03T10:23:38;5.55;;;2.30;;
9563;SDS011;4820;50.870;4.702;2023-04-03T10:32:16;3.50;;;2.20;;
9563;SDS011;4820;50.870;4.702;2023-04-03T10:34:52;3.35;;;2.13;;
9563;SDS011;4820;50.870;4.702;2023-04-03T10:37:29;7.22;;;2.70;;
9563;SDS011;4820;50.870;4.702;2023-04-03T10:40:04;3.85;;;2.20;;
9563;SDS011;4820;50.870;4.702;2023-04-03T10:42:46;4.35;;;2.60;;
9563;SDS011;4820;50.870;4.702;2023-04-03T10:45:32;5.70;;;2.08;;
9563;SDS011;4820;50.870;4.702;2023-04-03T10:48:28;5.80;;;2.15;;
9563;SDS011;4820;50.870;4.702;2023-04-03T10:53:49;4.68;;;2.10;;
9563;SDS011;4820;50.870;4.702;2023-04-03T10:59:32;13.73;;;3.13;;
9563;SDS011;4820;50.870;4.702;2023-04-03T11:02:28;4.85;;;1.80;;
9563;SDS011;4820;50.870;4.702;2023-04-03T11:04:58;4.43;;;2.08;;
9563;SDS011;4820;50.870;4.702;2023-04-03T11:07:28;6.68;;;2.25;;
9563;SDS011;4820;50.870;4.702;2023-04-03T11:10:09;2.83;;;1.92;;
9563;SDS011;4820;50.870;4.702;2023-04-03T11:12:46;17.85;;;3.30;;
9563;SDS011;4820;50.870;4.702;2023-04-03T11:15:17;70.97;;;11.27;;
9563;SDS011;4820;50.870;4.702;2023-04-03T11:17:48;7.28;;;2.47;;
9563;SDS011;4820;50.870;4.702;2023-04-03T11:20:28;2.83;;;1.70;;
9563;SDS011;4820;50.870;4.702;2023-04-03T11:23:05;3.65;;;2.08;;
9563;SDS011;4820;50.870;4.702;2023-04-03T11:25:38;4.40;;;1.60;;
9563;SDS011;4820;50.870;4.702;2023-04-03T11:28:11;3.80;;;1.60;;
9563;SDS011;4820;50.870;4.702;2023-04-03T11:36:12;4.00;;;1.70;;
9563;SDS011;4820;50.870;4.702;2023-04-03T11:38:45;2.42;;;1.50;;
9563;SDS011;4820;50.870;4.702;2023-04-03T11:41:12;12.13;;;4.05;;
9563;SDS011;4820;50.870;4.702;2023-04-03T11:43:55;15.05;;;4.18;;
9563;SDS011;4820;50.870;4.702;2023-04-03T11:47:01;4.70;;;1.70;;
9563;SDS011;4820;50.870;4.702;2023-04-03T12:05:55;36.55;;;4.82;;
9563;SDS011;4820;50.870;4.702;2023-04-03T12:08:29;6.85;;;2.03;;
9563;SDS011;4820;50.870;4.702;2023-04-03T12:13:42;5.30;;;2.63;;
9563;SDS011;4820;50.870;4.702;2023-04-03T12:24:32;4.00;;;1.92;;
9563;SDS011;4820;50.870;4.702;2023-04-03T12:32:04;8.60;;;1.50;;
9563;SDS011;4820;50.870;4.702;2023-04-03T12:42:29;2.35;;;1.70;;
9563;SDS011;4820;50.870;4.702;2023-04-03T12:45:20;8.05;;;2.10;;
9563;SDS011;4820;50.870;4.702;2023-04-03T12:47:49;2.60;;;1.60;;
9563;SDS011;4820;50.870;4.702;2023-04-03T12:50:24;32.38;;;4.43;;
9563;SDS011;4820;50.870;4.702;2023-04-03T12:53:12;2.03;;;1.40;;
9563;SDS011;4820;50.870;4.702;2023-04-03T12:55:44;5.43;;;1.50;;
9563;SDS011;4820;50.870;4.702;2023-04-03T12:58:19;6.60;;;1.60;;
9563;SDS011;4820;50.870;4.702;2023-04-03T13:03:27;3.03;;;1.55;;
9563;SDS011;4820;50.870;4.702;2023-04-03T13:05:55;3.03;;;1.60;;
9563;SDS011;4820;50.870;4.702;2023-04-03T13:08:25;4.20;;;1.60;;
9563;SDS011;4820;50.870;4.702;2023-04-03T13:13:28;3.25;;;2.03;;
9563;SDS011;4820;50.870;4.702;2023-04-03T13:15:54;8.63;;;2.63;;
9563;SDS011;4820;50.870;4.702;2023-04-03T13:20:53;8.25;;;2.10;;
9563;SDS011;4820;50.870;4.702;2023-04-03T13:23:22;12.07;;;3.13;;
9563;SDS011;4820;50.870;4.702;2023-04-03T13:25:48;10.23;;;2.40;;
9563;SDS011;4820;50.870;4.702;2023-04-03T13:28:18;4.55;;;1.80;;
9563;SDS011;4820;50.870;4.702;2023-04-03T13:30:59;4.00;;;1.77;;
9563;SDS011;4820;50.870;4.702;2023-04-03T13:33:27;3.50;;;1.85;;
9563;SDS011;4820;50.870;4.702;2023-04-03T13:38:58;2.67;;;1.65;;
9563;SDS011;4820;50.870;4.702;2023-04-03T13:41:29;2.50;;;1.60;;
9563;SDS011;4820;50.870;4.702;2023-04-03T13:44:15;4.07;;;1.65;;
9563;SDS011;4820;50.870;4.702;2023-04-03T13:46:50;8.05;;;2.55;;
9563;SDS011;4820;50.870;4.702;2023-04-03T13:49:22;4.05;;;1.83;;
9563;SDS011;4820;50.870;4.702;2023-04-03T13:52:02;6.63;;;3.35;;
9563;SDS011;4820;50.870;4.702;2023-04-03T13:54:47;2.80;;;1.50;;
9563;SDS011;4820;50.870;4.702;2023-04-03T13:57:17;2.28;;;1.50;;
9563;SDS011;4820;50.870;4.702;2023-04-03T13:59:44;2.33;;;1.63;;
9563;SDS011;4820;50.870;4.702;2023-04-03T14:07:08;2.83;;;1.77;;
9563;SDS011;4820;50.870;4.702;2023-04-03T14:09:35;2.70;;;1.38;;
9563;SDS011;4820;50.870;4.702;2023-04-03T14:12:08;4.43;;;1.75;;
9563;SDS011;4820;50.870;4.702;2023-04-03T14:14:41;3.17;;;1.58;;
9563;SDS011;4820;50.870;4.702;2023-04-03T14:17:16;4.60;;;1.58;;
9563;SDS011;4820;50.870;4.702;2023-04-03T14:19:44;7.78;;;2.22;;
9563;SDS011;4820;50.870;4.702;2023-04-03T14:22:21;2.60;;;1.70;;
9563;SDS011;4820;50.870;4.702;2023-04-03T14:24:49;2.30;;;1.60;;
9563;SDS011;4820;50.870;4.702;2023-04-03T14:27:21;3.95;;;1.70;;
9563;SDS011;4820;50.870;4.702;2023-04-03T14:29:50;4.40;;;1.83;;
9563;SDS011;4820;50.870;4.702;2023-04-03T14:32:20;3.70;;;1.70;;
9563;SDS011;4820;50.870;4.702;2023-04-03T14:34:47;12.70;;;2.50;;
9563;SDS011;4820;50.870;4.702;2023-04-03T14:37:19;4.20;;;1.73;;
9563;SDS011;4820;50.870;4.702;2023-04-03T14:39:48;2.88;;;1.58;;
9563;SDS011;4820;50.870;4.702;2023-04-03T14:42:19;4.13;;;2.00;;
9563;SDS011;4820;50.870;4.702;2023-04-03T14:44:47;5.07;;;2.50;;
9563;SDS011;4820;50.870;4.702;2023-04-03T14:47:14;4.57;;;2.00;;
9563;SDS011;4820;50.870;4.702;2023-04-03T14:49:43;2.60;;;1.80;;
9563;SDS011;4820;50.870;4.702;2023-04-03T14:52:32;2.25;;;1.70;;
9563;SDS011;4820;50.870;4.702;2023-04-03T14:54:58;3.17;;;1.70;;
9563;SDS011;4820;50.870;4.702;2023-04-03T14:57:25;2.20;;;1.60;;
9563;SDS011;4820;50.870;4.702;2023-04-03T14:59:53;3.40;;;2.10;;
9563;SDS011;4820;50.870;4.702;2023-04-03T15:02:27;3.00;;;1.75;;
9563;SDS011;4820;50.870;4.702;2023-04-03T15:04:58;2.22;;;1.65;;
9563;SDS011;4820;50.870;4.702;2023-04-03T15:07:25;5.75;;;2.03;;
9563;SDS011;4820;50.870;4.702;2023-04-03T15:09:53;4.38;;;2.00;;
9563;SDS011;4820;50.870;4.702;2023-04-03T15:12:23;2.10;;;1.83;;
9563;SDS011;4820;50.870;4.702;2023-04-03T15:14:50;2.78;;;2.10;;
9563;SDS011;4820;50.870;4.702;2023-04-03T15:17:17;2.95;;;1.70;;
9563;SDS011;4820;50.870;4.702;2023-04-03T15:19:46;2.90;;;1.70;;
9563;SDS011;4820;50.870;4.702;2023-04-03T15:22:15;3.25;;;1.90;;
9563;SDS011;4820;50.870;4.702;2023-04-03T15:24:43;3.47;;;1.70;;
9563;SDS011;4820;50.870;4.702;2023-04-03T15:27:11;3.15;;;2.00;;
9563;SDS011;4820;50.870;4.702;2023-04-03T15:29:39;3.38;;;1.75;;
9563;SDS011;4820;50.870;4.702;2023-04-03T15:32:06;3.17;;;1.77;;
9563;SDS011;4820;50.870;4.702;2023-04-03T15:34:33;4.13;;;2.08;;
9563;SDS011;4820;50.870;4.702;2023-04-03T15:37:00;3.28;;;1.80;;
9563;SDS011;4820;50.870;4.702;2023-04-03T15:39:26;7.15;;;2.20;;
9563;SDS011;4820;50.870;4.702;2023-04-03T15:41:53;3.95;;;2.10;;
9563;SDS011;4820;50.870;4.702;2023-04-03T15:44:21;3.10;;;2.00;;
9563;SDS011;4820;50.870;4.702;2023-04-03T15:46:48;2.78;;;2.00;;
9563;SDS011;4820;50.870;4.702;2023-04-03T15:49:16;3.33;;;2.00;;
9563;SDS011;4820;50.870;4.702;2023-04-03T15:51:42;3.33;;;1.83;;
9563;SDS011;4820;50.870;4.702;2023-04-03T15:54:10;5.47;;;2.70;;
9563;SDS011;4820;50.870;4.702;2023-04-03T15:56:36;5.40;;;3.50;;
9563;SDS011;4820;50.870;4.702;2023-04-03T15:59:01;5.13;;;2.90;;
9563;SDS011;4820;50.870;4.702;2023-04-03T16:01:27;2.67;;;2.10;;
9563;SDS011;4820;50.870;4.702;2023-04-03T16:03:54;3.33;;;2.38;;
9563;SDS011;4820;50.870;4.702;2023-04-03T16:06:20;4.30;;;2.17;;
9563;SDS011;4820;50.870;4.702;2023-04-03T16:08:47;4.07;;;1.90;;
9563;SDS011;4820;50.870;4.702;2023-04-03T16:11:15;4.20;;;2.08;;
9563;SDS011;4820;50.870;4.702;2023-04-03T16:13:41;2.80;;;1.88;;
9563;SDS011;4820;50.870;4.702;2023-04-03T16:16:08;3.00;;;2.10;;
9563;SDS011;4820;50.870;4.702;2023-04-03T16:18:34;4.55;;;3.00;;
9563;SDS011;4820;50.870;4.702;2023-04-03T16:21:00;4.32;;;2.25;;
9563;SDS011;4820;50.870;4.702;2023-04-03T16:23:26;3.80;;;2.08;;
9563;SDS011;4820;50.870;4.702;2023-04-03T16:25:52;3.58;;;1.92;;
9563;SDS011;4820;50.870;4.702;2023-04-03T16:28:17;4.18;;;2.15;;
9563;SDS011;4820;50.870;4.702;2023-04-03T16:30:44;4.35;;;2.28;;
9563;SDS011;4820;50.870;4.702;2023-04-03T16:33:11;3.92;;;2.35;;
9563;SDS011;4820;50.870;4.702;2023-04-03T16:35:39;5.43;;;2.47;;
9563;SDS011;4820;50.870;4.702;2023-04-03T16:38:07;3.97;;;2.13;;
9563;SDS011;4820;50.870;4.702;2023-04-03T16:40:32;2.90;;;2.03;;
9563;SDS011;4820;50.870;4.702;2023-04-03T16:43:00;3.90;;;2.20;;
9563;SDS011;4820;50.870;4.702;2023-04-03T16:45:27;3.40;;;2.03;;
9563;SDS011;4820;50.870;4.702;2023-04-03T16:47:53;3.33;;;2.10;;
9563;SDS011;4820;50.870;4.702;2023-04-03T16:50:19;2.97;;;1.90;;
9563;SDS011;4820;50.870;4.702;2023-04-03T16:52:45;2.83;;;2.10;;
9563;SDS011;4820;50.870;4.702;2023-04-03T16:55:12;3.35;;;2.00;;
9563;SDS011;4820;50.870;4.702;2023-04-03T16:57:38;2.50;;;1.90;;
9563;SDS011;4820;50.870;4.702;2023-04-03T17:00:04;2.08;;;1.70;;
9563;SDS011;4820;50.870;4.702;2023-04-03T17:02:32;3.75;;;1.83;;
9563;SDS011;4820;50.870;4.702;2023-04-03T17:04:57;3.42;;;1.70;;
9563;SDS011;4820;50.870;4.702;2023-04-03T17:07:24;3.22;;;1.92;;
9563;SDS011;4820;50.870;4.702;2023-04-03T17:09:50;2.80;;;2.10;;
9563;SDS011;4820;50.870;4.702;2023-04-03T17:12:21;4.15;;;2.20;;
9563;SDS011;4820;50.870;4.702;2023-04-03T17:14:48;3.70;;;2.05;;
9563;SDS011;4820;50.870;4.702;2023-04-03T17:17:15;3.25;;;1.80;;
9563;SDS011;4820;50.870;4.702;2023-04-03T17:19:46;3.60;;;2.10;;
9563;SDS011;4820;50.870;4.702;2023-04-03T17:22:13;4.93;;;1.85;;
9563;SDS011;4820;50.870;4.702;2023-04-03T17:24:40;4.40;;;1.77;;
9563;SDS011;4820;50.870;4.702;2023-04-03T17:27:06;3.85;;;2.10;;